sensor_id;sensor_type;location;lat;lon;timestamp;P1;durP1;ratioP1;P2;durP2;ratioP2
26965;SDS011;14522;52.068;4.414;2022-12-10T00:01:07;60.13;;;27.98;;
26965;SDS011;14522;52.068;4.414;2022-12-10T00:03:34;55.83;;;27.58;;
26965;SDS011;14522;52.068;4.414;2022-12-10T00:06:01;56.55;;;28.25;;
26965;SDS011;14522;52.068;4.414;2022-12-10T00:08:28;46.55;;;24.73;;
26965;SDS011;14522;52.068;4.414;2022-12-10T00:10:55;53.45;;;27.55;;
26965;SDS011;14522;52.068;4.414;2022-12-10T00:13:21;51.17;;;27.02;;
26965;SDS011;14522;52.068;4.414;2022-12-10T00:15:48;52.58;;;26.35;;
26965;SDS011;14522;52.068;4.414;2022-12-10T00:18:14;50.47;;;25.83;;
26965;SDS011;14522;52.068;4.414;2022-12-10T00:20:41;53.95;;;27.20;;
26965;SDS011;14522;52.068;4.414;2022-12-10T00:23:07;52.75;;;28.13;;
26965;SDS011;14522;52.068;4.414;2022-12-10T00:25:33;48.17;;;26.10;;
26965;SDS011;14522;52.068;4.414;2022-12-10T00:28:00;49.13;;;25.38;;
26965;SDS011;14522;52.068;4.414;2022-12-10T00:30:26;51.25;;;26.83;;
26965;SDS011;14522;52.068;4.414;2022-12-10T00:32:52;52.30;;;27.17;;
26965;SDS011;14522;52.068;4.414;2022-12-10T00:35:19;52.90;;;26.88;;
26965;SDS011;14522;52.068;4.414;2022-12-10T00:37:46;44.58;;;22.08;;
26965;SDS011;14522;52.068;4.414;2022-12-10T00:40:13;49.15;;;26.00;;
26965;SDS011;14522;52.068;4.414;2022-12-10T00:42:39;47.45;;;24.95;;
26965;SDS011;14522;52.068;4.414;2022-12-10T00:45:05;49.78;;;25.90;;
26965;SDS011;14522;52.068;4.414;2022-12-10T00:47:32;46.60;;;24.30;;
26965;SDS011;14522;52.068;4.414;2022-12-10T00:49:59;41.03;;;22.10;;
26965;SDS011;14522;52.068;4.414;2022-12-10T00:52:25;47.63;;;24.60;;
26965;SDS011;14522;52.068;4.414;2022-12-10T00:54:52;48.38;;;23.98;;
26965;SDS011;14522;52.068;4.414;2022-12-10T00:57:18;46.17;;;23.13;;
26965;SDS011;14522;52.068;4.414;2022-12-10T00:59:45;48.78;;;24.48;;
26965;SDS011;14522;52.068;4.414;2022-12-10T01:02:11;48.38;;;23.88;;
26965;SDS011;14522;52.068;4.414;2022-12-10T01:04:37;47.85;;;24.52;;
26965;SDS011;14522;52.068;4.414;2022-12-10T01:07:04;46.28;;;23.38;;
26965;SDS011;14522;52.068;4.414;2022-12-10T01:09:36;48.20;;;24.65;;
26965;SDS011;14522;52.068;4.414;2022-12-10T01:12:03;49.92;;;25.42;;
26965;SDS011;14522;52.068;4.414;2022-12-10T01:14:30;43.63;;;23.45;;
26965;SDS011;14522;52.068;4.414;2022-12-10T01:16:59;46.67;;;24.83;;
26965;SDS011;14522;52.068;4.414;2022-12-10T01:19:25;48.53;;;25.42;;
26965;SDS011;14522;52.068;4.414;2022-12-10T01:21:52;52.75;;;25.50;;
26965;SDS011;14522;52.068;4.414;2022-12-10T01:24:23;48.80;;;25.50;;
26965;SDS011;14522;52.068;4.414;2022-12-10T01:26:49;47.72;;;24.80;;
26965;SDS011;14522;52.068;4.414;2022-12-10T01:29:16;30.00;;;16.80;;
26965;SDS011;14522;52.068;4.414;2022-12-10T01:31:43;46.03;;;24.20;;
26965;SDS011;14522;52.068;4.414;2022-12-10T01:34:11;40.70;;;21.70;;
26965;SDS011;14522;52.068;4.414;2022-12-10T01:36:39;48.90;;;24.77;;
26965;SDS011;14522;52.068;4.414;2022-12-10T01:39:06;53.75;;;26.85;;
26965;SDS011;14522;52.068;4.414;2022-12-10T01:41:35;51.83;;;25.42;;
26965;SDS011;14522;52.068;4.414;2022-12-10T01:45:05;56.83;;;26.67;;
26965;SDS011;14522;52.068;4.414;2022-12-10T01:51:41;53.03;;;25.52;;
26965;SDS011;14522;52.068;4.414;2022-12-10T01:54:09;47.85;;;23.05;;
26965;SDS011;14522;52.068;4.414;2022-12-10T01:56:37;53.67;;;26.88;;
26965;SDS011;14522;52.068;4.414;2022-12-10T01:59:04;47.80;;;24.48;;
26965;SDS011;14522;52.068;4.414;2022-12-10T02:04:07;51.25;;;25.85;;
26965;SDS011;14522;52.068;4.414;2022-12-10T02:06:48;48.13;;;23.63;;
26965;SDS011;14522;52.068;4.414;2022-12-10T02:09:23;53.60;;;25.88;;
26965;SDS011;14522;52.068;4.414;2022-12-10T02:12:01;56.10;;;26.77;;
26965;SDS011;14522;52.068;4.414;2022-12-10T02:17:14;50.92;;;25.88;;
26965;SDS011;14522;52.068;4.414;2022-12-10T02:22:11;50.45;;;25.02;;
26965;SDS011;14522;52.068;4.414;2022-12-10T02:24:38;46.83;;;23.00;;
26965;SDS011;14522;52.068;4.414;2022-12-10T02:27:14;49.88;;;24.92;;
26965;SDS011;14522;52.068;4.414;2022-12-10T02:29:41;50.05;;;25.13;;
26965;SDS011;14522;52.068;4.414;2022-12-10T02:32:17;55.20;;;26.35;;
26965;SDS011;14522;52.068;4.414;2022-12-10T02:34:47;52.13;;;24.33;;
26965;SDS011;14522;52.068;4.414;2022-12-10T02:37:21;48.60;;;24.25;;
26965;SDS011;14522;52.068;4.414;2022-12-10T02:39:49;52.63;;;25.10;;
26965;SDS011;14522;52.068;4.414;2022-12-10T02:42:17;47.00;;;23.50;;
26965;SDS011;14522;52.068;4.414;2022-12-10T02:44:44;49.63;;;24.88;;
26965;SDS011;14522;52.068;4.414;2022-12-10T02:47:12;49.80;;;25.10;;
26965;SDS011;14522;52.068;4.414;2022-12-10T02:49:39;46.60;;;22.95;;
26965;SDS011;14522;52.068;4.414;2022-12-10T02:52:09;50.42;;;23.60;;
26965;SDS011;14522;52.068;4.414;2022-12-10T02:54:39;51.38;;;23.33;;
26965;SDS011;14522;52.068;4.414;2022-12-10T03:05:10;43.63;;;21.30;;
26965;SDS011;14522;52.068;4.414;2022-12-10T03:07:45;43.75;;;21.35;;
26965;SDS011;14522;52.068;4.414;2022-12-10T03:10:19;41.20;;;21.38;;
26965;SDS011;14522;52.068;4.414;2022-12-10T03:12:47;37.88;;;20.00;;
26965;SDS011;14522;52.068;4.414;2022-12-10T03:15:15;43.33;;;20.42;;
26965;SDS011;14522;52.068;4.414;2022-12-10T03:17:42;48.20;;;22.50;;
26965;SDS011;14522;52.068;4.414;2022-12-10T03:20:11;45.83;;;21.67;;
26965;SDS011;14522;52.068;4.414;2022-12-10T03:22:39;39.42;;;20.98;;
26965;SDS011;14522;52.068;4.414;2022-12-10T03:25:06;44.65;;;21.88;;
26965;SDS011;14522;52.068;4.414;2022-12-10T03:27:33;42.67;;;21.08;;
26965;SDS011;14522;52.068;4.414;2022-12-10T03:29:59;35.25;;;18.80;;
26965;SDS011;14522;52.068;4.414;2022-12-10T03:32:27;38.92;;;19.98;;
26965;SDS011;14522;52.068;4.414;2022-12-10T03:34:54;37.47;;;18.30;;
26965;SDS011;14522;52.068;4.414;2022-12-10T03:37:23;40.67;;;21.00;;
26965;SDS011;14522;52.068;4.414;2022-12-10T03:39:50;35.53;;;18.55;;
26965;SDS011;14522;52.068;4.414;2022-12-10T03:42:16;35.05;;;18.95;;
26965;SDS011;14522;52.068;4.414;2022-12-10T03:44:43;34.35;;;19.83;;
26965;SDS011;14522;52.068;4.414;2022-12-10T03:47:11;45.58;;;20.15;;
26965;SDS011;14522;52.068;4.414;2022-12-10T03:49:38;37.22;;;18.27;;
26965;SDS011;14522;52.068;4.414;2022-12-10T03:52:04;32.58;;;18.70;;
26965;SDS011;14522;52.068;4.414;2022-12-10T03:54:30;32.40;;;19.40;;
26965;SDS011;14522;52.068;4.414;2022-12-10T03:56:57;44.05;;;19.85;;
26965;SDS011;14522;52.068;4.414;2022-12-10T03:59:23;36.80;;;19.58;;
26965;SDS011;14522;52.068;4.414;2022-12-10T04:01:49;41.13;;;19.50;;
26965;SDS011;14522;52.068;4.414;2022-12-10T04:04:16;39.53;;;19.85;;
26965;SDS011;14522;52.068;4.414;2022-12-10T04:06:42;42.42;;;19.52;;
26965;SDS011;14522;52.068;4.414;2022-12-10T04:09:12;37.55;;;18.95;;
26965;SDS011;14522;52.068;4.414;2022-12-10T04:11:39;38.33;;;19.92;;
26965;SDS011;14522;52.068;4.414;2022-12-10T04:14:05;39.78;;;20.23;;
26965;SDS011;14522;52.068;4.414;2022-12-10T04:16:50;42.47;;;21.38;;
26965;SDS011;14522;52.068;4.414;2022-12-10T04:19:17;35.45;;;20.08;;
26965;SDS011;14522;52.068;4.414;2022-12-10T04:21:44;37.55;;;20.13;;
26965;SDS011;14522;52.068;4.414;2022-12-10T04:24:31;30.33;;;14.45;;
26965;SDS011;14522;52.068;4.414;2022-12-10T04:27:24;37.25;;;21.23;;
26965;SDS011;14522;52.068;4.414;2022-12-10T04:29:50;36.83;;;20.98;;
26965;SDS011;14522;52.068;4.414;2022-12-10T04:32:17;36.95;;;20.67;;
26965;SDS011;14522;52.068;4.414;2022-12-10T04:34:43;46.53;;;22.63;;
26965;SDS011;14522;52.068;4.414;2022-12-10T04:37:09;41.42;;;19.80;;
26965;SDS011;14522;52.068;4.414;2022-12-10T04:39:37;34.67;;;19.33;;
26965;SDS011;14522;52.068;4.414;2022-12-10T04:42:04;38.25;;;19.98;;
26965;SDS011;14522;52.068;4.414;2022-12-10T04:44:30;35.65;;;20.23;;
26965;SDS011;14522;52.068;4.414;2022-12-10T04:46:57;29.42;;;16.17;;
26965;SDS011;14522;52.068;4.414;2022-12-10T04:49:23;39.88;;;19.77;;
26965;SDS011;14522;52.068;4.414;2022-12-10T04:51:50;37.80;;;20.23;;
26965;SDS011;14522;52.068;4.414;2022-12-10T04:54:17;35.92;;;18.40;;
26965;SDS011;14522;52.068;4.414;2022-12-10T04:56:43;33.17;;;18.83;;
26965;SDS011;14522;52.068;4.414;2022-12-10T04:59:09;42.83;;;18.17;;
26965;SDS011;14522;52.068;4.414;2022-12-10T05:01:36;37.40;;;19.60;;
26965;SDS011;14522;52.068;4.414;2022-12-10T05:04:04;33.50;;;18.40;;
26965;SDS011;14522;52.068;4.414;2022-12-10T05:06:31;35.65;;;18.50;;
26965;SDS011;14522;52.068;4.414;2022-12-10T05:08:57;37.63;;;18.27;;
26965;SDS011;14522;52.068;4.414;2022-12-10T05:11:25;38.40;;;19.20;;
26965;SDS011;14522;52.068;4.414;2022-12-10T05:13:52;39.35;;;18.98;;
26965;SDS011;14522;52.068;4.414;2022-12-10T05:16:19;38.90;;;18.05;;
26965;SDS011;14522;52.068;4.414;2022-12-10T05:18:45;32.60;;;17.13;;
26965;SDS011;14522;52.068;4.414;2022-12-10T05:21:13;35.85;;;17.67;;
26965;SDS011;14522;52.068;4.414;2022-12-10T05:23:41;34.50;;;16.95;;
26965;SDS011;14522;52.068;4.414;2022-12-10T05:26:16;31.80;;;16.35;;
26965;SDS011;14522;52.068;4.414;2022-12-10T05:28:49;40.40;;;16.85;;
26965;SDS011;14522;52.068;4.414;2022-12-10T05:31:17;31.13;;;16.45;;
26965;SDS011;14522;52.068;4.414;2022-12-10T05:33:44;34.33;;;18.60;;
26965;SDS011;14522;52.068;4.414;2022-12-10T05:36:11;30.63;;;17.35;;
26965;SDS011;14522;52.068;4.414;2022-12-10T05:38:39;41.38;;;17.38;;
26965;SDS011;14522;52.068;4.414;2022-12-10T05:41:06;30.88;;;15.27;;
26965;SDS011;14522;52.068;4.414;2022-12-10T05:43:32;32.50;;;14.93;;
26965;SDS011;14522;52.068;4.414;2022-12-10T05:46:03;33.20;;;15.63;;
26965;SDS011;14522;52.068;4.414;2022-12-10T05:48:30;26.55;;;15.00;;
26965;SDS011;14522;52.068;4.414;2022-12-10T05:50:56;28.63;;;16.02;;
26965;SDS011;14522;52.068;4.414;2022-12-10T05:53:23;30.27;;;15.73;;
26965;SDS011;14522;52.068;4.414;2022-12-10T05:55:49;31.45;;;16.35;;
26965;SDS011;14522;52.068;4.414;2022-12-10T05:58:16;35.78;;;15.43;;
26965;SDS011;14522;52.068;4.414;2022-12-10T06:00:42;33.25;;;16.52;;
26965;SDS011;14522;52.068;4.414;2022-12-10T06:03:09;29.27;;;16.33;;
26965;SDS011;14522;52.068;4.414;2022-12-10T06:05:37;32.35;;;16.02;;
26965;SDS011;14522;52.068;4.414;2022-12-10T06:08:03;28.17;;;16.95;;
26965;SDS011;14522;52.068;4.414;2022-12-10T06:10:30;32.05;;;16.92;;
26965;SDS011;14522;52.068;4.414;2022-12-10T06:12:56;31.48;;;15.77;;
26965;SDS011;14522;52.068;4.414;2022-12-10T06:15:22;30.30;;;15.23;;
26965;SDS011;14522;52.068;4.414;2022-12-10T06:17:49;32.50;;;15.80;;
26965;SDS011;14522;52.068;4.414;2022-12-10T06:20:15;25.38;;;14.57;;
26965;SDS011;14522;52.068;4.414;2022-12-10T06:22:41;26.33;;;14.63;;
26965;SDS011;14522;52.068;4.414;2022-12-10T06:25:08;25.08;;;14.90;;
26965;SDS011;14522;52.068;4.414;2022-12-10T06:27:34;28.77;;;14.95;;
26965;SDS011;14522;52.068;4.414;2022-12-10T06:30:00;27.60;;;15.20;;
26965;SDS011;14522;52.068;4.414;2022-12-10T06:32:27;25.80;;;14.55;;
26965;SDS011;14522;52.068;4.414;2022-12-10T06:34:53;24.00;;;13.45;;
26965;SDS011;14522;52.068;4.414;2022-12-10T06:37:20;27.15;;;15.80;;
26965;SDS011;14522;52.068;4.414;2022-12-10T06:39:46;32.13;;;15.85;;
26965;SDS011;14522;52.068;4.414;2022-12-10T06:42:12;24.58;;;14.57;;
26965;SDS011;14522;52.068;4.414;2022-12-10T06:44:39;31.65;;;15.10;;
26965;SDS011;14522;52.068;4.414;2022-12-10T06:47:05;32.78;;;15.80;;
26965;SDS011;14522;52.068;4.414;2022-12-10T06:49:31;25.25;;;15.35;;
26965;SDS011;14522;52.068;4.414;2022-12-10T06:51:58;32.50;;;16.75;;
26965;SDS011;14522;52.068;4.414;2022-12-10T06:54:24;26.58;;;14.98;;
26965;SDS011;14522;52.068;4.414;2022-12-10T06:56:50;27.27;;;14.95;;
26965;SDS011;14522;52.068;4.414;2022-12-10T06:59:17;22.85;;;13.13;;
26965;SDS011;14522;52.068;4.414;2022-12-10T07:01:43;24.42;;;14.60;;
26965;SDS011;14522;52.068;4.414;2022-12-10T07:04:10;21.77;;;13.38;;
26965;SDS011;14522;52.068;4.414;2022-12-10T07:06:36;27.88;;;15.15;;
26965;SDS011;14522;52.068;4.414;2022-12-10T07:09:02;28.45;;;15.45;;
26965;SDS011;14522;52.068;4.414;2022-12-10T07:11:29;25.95;;;15.07;;
26965;SDS011;14522;52.068;4.414;2022-12-10T07:13:57;30.60;;;14.70;;
26965;SDS011;14522;52.068;4.414;2022-12-10T07:16:25;29.48;;;14.70;;
26965;SDS011;14522;52.068;4.414;2022-12-10T07:18:53;27.20;;;16.50;;
26965;SDS011;14522;52.068;4.414;2022-12-10T07:21:23;32.78;;;17.58;;
26965;SDS011;14522;52.068;4.414;2022-12-10T07:23:54;31.80;;;16.48;;
26965;SDS011;14522;52.068;4.414;2022-12-10T07:26:22;33.38;;;15.48;;
26965;SDS011;14522;52.068;4.414;2022-12-10T07:28:48;36.30;;;16.50;;
26965;SDS011;14522;52.068;4.414;2022-12-10T07:31:19;29.65;;;15.75;;
26965;SDS011;14522;52.068;4.414;2022-12-10T07:33:45;32.35;;;16.40;;
26965;SDS011;14522;52.068;4.414;2022-12-10T07:36:12;26.63;;;14.70;;
26965;SDS011;14522;52.068;4.414;2022-12-10T07:38:39;25.42;;;13.35;;
26965;SDS011;14522;52.068;4.414;2022-12-10T07:41:09;28.38;;;15.00;;
26965;SDS011;14522;52.068;4.414;2022-12-10T07:43:37;32.80;;;14.25;;
26965;SDS011;14522;52.068;4.414;2022-12-10T07:46:15;29.17;;;15.82;;
26965;SDS011;14522;52.068;4.414;2022-12-10T07:48:42;30.63;;;16.60;;
26965;SDS011;14522;52.068;4.414;2022-12-10T07:51:09;28.33;;;15.85;;
26965;SDS011;14522;52.068;4.414;2022-12-10T07:53:36;33.95;;;15.50;;
26965;SDS011;14522;52.068;4.414;2022-12-10T07:56:03;28.73;;;15.48;;
26965;SDS011;14522;52.068;4.414;2022-12-10T07:58:30;26.80;;;14.75;;
26965;SDS011;14522;52.068;4.414;2022-12-10T08:00:56;32.65;;;16.60;;
26965;SDS011;14522;52.068;4.414;2022-12-10T08:03:23;28.58;;;15.57;;
26965;SDS011;14522;52.068;4.414;2022-12-10T08:06:12;28.23;;;16.40;;
26965;SDS011;14522;52.068;4.414;2022-12-10T08:08:36;33.80;;;16.88;;
26965;SDS011;14522;52.068;4.414;2022-12-10T08:11:05;29.67;;;17.20;;
26965;SDS011;14522;52.068;4.414;2022-12-10T08:13:32;29.05;;;15.45;;
26965;SDS011;14522;52.068;4.414;2022-12-10T08:16:02;32.33;;;17.45;;
26965;SDS011;14522;52.068;4.414;2022-12-10T08:18:29;32.05;;;16.40;;
26965;SDS011;14522;52.068;4.414;2022-12-10T08:20:56;31.00;;;16.65;;
26965;SDS011;14522;52.068;4.414;2022-12-10T08:23:22;30.77;;;16.33;;
26965;SDS011;14522;52.068;4.414;2022-12-10T08:25:49;31.48;;;17.38;;
26965;SDS011;14522;52.068;4.414;2022-12-10T08:28:15;32.78;;;16.98;;
26965;SDS011;14522;52.068;4.414;2022-12-10T08:30:45;35.30;;;18.15;;
26965;SDS011;14522;52.068;4.414;2022-12-10T08:33:11;32.45;;;16.77;;
26965;SDS011;14522;52.068;4.414;2022-12-10T08:35:38;32.75;;;18.17;;
26965;SDS011;14522;52.068;4.414;2022-12-10T08:38:04;39.58;;;19.05;;
26965;SDS011;14522;52.068;4.414;2022-12-10T08:40:30;31.60;;;16.40;;
26965;SDS011;14522;52.068;4.414;2022-12-10T08:42:57;39.63;;;18.75;;
26965;SDS011;14522;52.068;4.414;2022-12-10T08:45:23;37.72;;;19.92;;
26965;SDS011;14522;52.068;4.414;2022-12-10T08:47:50;37.15;;;18.30;;
26965;SDS011;14522;52.068;4.414;2022-12-10T08:50:16;36.72;;;19.25;;
26965;SDS011;14522;52.068;4.414;2022-12-10T08:52:42;34.95;;;18.17;;
26965;SDS011;14522;52.068;4.414;2022-12-10T08:55:09;37.97;;;19.52;;
26965;SDS011;14522;52.068;4.414;2022-12-10T08:57:35;36.00;;;17.85;;
26965;SDS011;14522;52.068;4.414;2022-12-10T09:00:02;38.75;;;19.75;;
26965;SDS011;14522;52.068;4.414;2022-12-10T09:02:29;39.50;;;19.92;;
26965;SDS011;14522;52.068;4.414;2022-12-10T09:04:55;45.95;;;21.75;;
26965;SDS011;14522;52.068;4.414;2022-12-10T09:07:22;39.47;;;19.58;;
26965;SDS011;14522;52.068;4.414;2022-12-10T09:09:48;41.80;;;19.27;;
26965;SDS011;14522;52.068;4.414;2022-12-10T09:12:14;35.63;;;18.05;;
26965;SDS011;14522;52.068;4.414;2022-12-10T09:14:41;41.70;;;20.83;;
26965;SDS011;14522;52.068;4.414;2022-12-10T09:17:08;39.83;;;19.63;;
26965;SDS011;14522;52.068;4.414;2022-12-10T09:19:34;34.58;;;18.65;;
26965;SDS011;14522;52.068;4.414;2022-12-10T09:22:00;37.58;;;19.40;;
26965;SDS011;14522;52.068;4.414;2022-12-10T09:24:27;36.40;;;18.77;;
26965;SDS011;14522;52.068;4.414;2022-12-10T09:26:53;35.58;;;18.98;;
26965;SDS011;14522;52.068;4.414;2022-12-10T09:29:19;38.88;;;19.75;;
26965;SDS011;14522;52.068;4.414;2022-12-10T09:31:49;36.03;;;18.35;;
26965;SDS011;14522;52.068;4.414;2022-12-10T09:34:16;37.50;;;20.05;;
26965;SDS011;14522;52.068;4.414;2022-12-10T09:36:42;42.78;;;20.45;;
26965;SDS011;14522;52.068;4.414;2022-12-10T09:39:09;40.72;;;21.35;;
26965;SDS011;14522;52.068;4.414;2022-12-10T09:41:47;35.80;;;16.95;;
26965;SDS011;14522;52.068;4.414;2022-12-10T09:47:02;39.72;;;19.60;;
26965;SDS011;14522;52.068;4.414;2022-12-10T09:52:05;43.97;;;21.58;;
26965;SDS011;14522;52.068;4.414;2022-12-10T09:54:33;40.17;;;19.70;;
26965;SDS011;14522;52.068;4.414;2022-12-10T09:57:00;43.17;;;21.42;;
26965;SDS011;14522;52.068;4.414;2022-12-10T09:59:30;40.58;;;19.83;;
26965;SDS011;14522;52.068;4.414;2022-12-10T10:02:02;43.83;;;21.25;;
26965;SDS011;14522;52.068;4.414;2022-12-10T10:04:28;43.70;;;22.42;;
26965;SDS011;14522;52.068;4.414;2022-12-10T10:06:55;39.35;;;19.27;;
26965;SDS011;14522;52.068;4.414;2022-12-10T10:09:21;41.20;;;21.75;;
26965;SDS011;14522;52.068;4.414;2022-12-10T10:11:48;47.15;;;22.92;;
26965;SDS011;14522;52.068;4.414;2022-12-10T10:14:25;47.05;;;22.10;;
26965;SDS011;14522;52.068;4.414;2022-12-10T10:16:57;43.30;;;22.20;;
26965;SDS011;14522;52.068;4.414;2022-12-10T10:19:27;45.63;;;22.80;;
26965;SDS011;14522;52.068;4.414;2022-12-10T10:21:53;44.88;;;20.92;;
26965;SDS011;14522;52.068;4.414;2022-12-10T10:24:25;40.78;;;20.02;;
26965;SDS011;14522;52.068;4.414;2022-12-10T10:26:52;43.58;;;21.33;;
26965;SDS011;14522;52.068;4.414;2022-12-10T10:29:22;41.05;;;20.83;;
26965;SDS011;14522;52.068;4.414;2022-12-10T10:34:57;45.15;;;22.55;;
26965;SDS011;14522;52.068;4.414;2022-12-10T10:37:31;45.28;;;21.40;;
26965;SDS011;14522;52.068;4.414;2022-12-10T10:40:05;43.10;;;21.40;;
26965;SDS011;14522;52.068;4.414;2022-12-10T10:42:35;42.28;;;21.08;;
26965;SDS011;14522;52.068;4.414;2022-12-10T10:45:09;42.20;;;20.98;;
26965;SDS011;14522;52.068;4.414;2022-12-10T10:48:02;43.28;;;21.13;;
26965;SDS011;14522;52.068;4.414;2022-12-10T10:50:29;43.35;;;21.42;;
26965;SDS011;14522;52.068;4.414;2022-12-10T10:52:55;44.67;;;21.13;;
26965;SDS011;14522;52.068;4.414;2022-12-10T10:55:31;40.55;;;20.50;;
26965;SDS011;14522;52.068;4.414;2022-12-10T10:58:02;38.45;;;20.33;;
26965;SDS011;14522;52.068;4.414;2022-12-10T11:00:28;36.90;;;19.10;;
26965;SDS011;14522;52.068;4.414;2022-12-10T11:02:55;37.75;;;19.55;;
26965;SDS011;14522;52.068;4.414;2022-12-10T11:08:02;34.15;;;17.83;;
26965;SDS011;14522;52.068;4.414;2022-12-10T11:10:29;32.15;;;17.75;;
26965;SDS011;14522;52.068;4.414;2022-12-10T11:13:06;30.20;;;15.35;;
26965;SDS011;14522;52.068;4.414;2022-12-10T11:15:36;33.03;;;17.20;;
26965;SDS011;14522;52.068;4.414;2022-12-10T11:18:22;36.63;;;19.15;;
26965;SDS011;14522;52.068;4.414;2022-12-10T11:20:59;24.67;;;13.15;;
26965;SDS011;14522;52.068;4.414;2022-12-10T11:23:30;35.47;;;18.20;;
26965;SDS011;14522;52.068;4.414;2022-12-10T11:26:02;36.88;;;18.70;;
26965;SDS011;14522;52.068;4.414;2022-12-10T11:28:37;31.55;;;16.77;;
26965;SDS011;14522;52.068;4.414;2022-12-10T11:33:49;34.70;;;18.98;;
26965;SDS011;14522;52.068;4.414;2022-12-10T11:36:26;37.42;;;18.98;;
26965;SDS011;14522;52.068;4.414;2022-12-10T11:39:02;36.40;;;18.70;;
26965;SDS011;14522;52.068;4.414;2022-12-10T11:41:40;37.08;;;20.58;;
26965;SDS011;14522;52.068;4.414;2022-12-10T11:47:00;40.13;;;19.52;;
26965;SDS011;14522;52.068;4.414;2022-12-10T11:50:12;40.60;;;21.48;;
26965;SDS011;14522;52.068;4.414;2022-12-10T11:52:27;43.75;;;22.60;;
26965;SDS011;14522;52.068;4.414;2022-12-10T12:10:43;35.33;;;16.85;;
26965;SDS011;14522;52.068;4.414;2022-12-10T12:13:22;37.35;;;19.50;;
26965;SDS011;14522;52.068;4.414;2022-12-10T12:15:52;38.63;;;19.77;;
26965;SDS011;14522;52.068;4.414;2022-12-10T12:21:09;33.53;;;16.73;;
26965;SDS011;14522;52.068;4.414;2022-12-10T12:23:46;20.10;;;11.30;;
26965;SDS011;14522;52.068;4.414;2022-12-10T12:26:20;35.90;;;18.17;;
26965;SDS011;14522;52.068;4.414;2022-12-10T12:28:50;37.22;;;18.70;;
26965;SDS011;14522;52.068;4.414;2022-12-10T12:31:20;30.67;;;16.27;;
26965;SDS011;14522;52.068;4.414;2022-12-10T12:33:50;38.20;;;19.27;;
26965;SDS011;14522;52.068;4.414;2022-12-10T12:36:21;36.58;;;18.30;;
26965;SDS011;14522;52.068;4.414;2022-12-10T12:38:51;34.50;;;18.17;;
26965;SDS011;14522;52.068;4.414;2022-12-10T12:44:18;38.17;;;18.67;;
26965;SDS011;14522;52.068;4.414;2022-12-10T12:46:48;35.10;;;17.98;;
26965;SDS011;14522;52.068;4.414;2022-12-10T12:49:20;41.30;;;20.05;;
26965;SDS011;14522;52.068;4.414;2022-12-10T12:54:33;37.95;;;19.80;;
26965;SDS011;14522;52.068;4.414;2022-12-10T12:57:07;33.65;;;17.50;;
26965;SDS011;14522;52.068;4.414;2022-12-10T13:02:22;39.13;;;19.27;;
26965;SDS011;14522;52.068;4.414;2022-12-10T13:04:51;38.65;;;18.85;;
26965;SDS011;14522;52.068;4.414;2022-12-10T13:09:45;42.92;;;22.27;;
26965;SDS011;14522;52.068;4.414;2022-12-10T13:12:17;38.53;;;20.35;;
26965;SDS011;14522;52.068;4.414;2022-12-10T13:17:35;43.53;;;21.17;;
26965;SDS011;14522;52.068;4.414;2022-12-10T13:31:34;40.30;;;20.20;;
26965;SDS011;14522;52.068;4.414;2022-12-10T13:33:51;39.58;;;18.95;;
26965;SDS011;14522;52.068;4.414;2022-12-10T13:36:26;41.08;;;20.95;;
26965;SDS011;14522;52.068;4.414;2022-12-10T13:41:38;39.65;;;20.45;;
26965;SDS011;14522;52.068;4.414;2022-12-10T13:49:21;33.58;;;18.10;;
26965;SDS011;14522;52.068;4.414;2022-12-10T13:54:21;36.00;;;17.55;;
26965;SDS011;14522;52.068;4.414;2022-12-10T13:56:57;39.60;;;19.25;;
26965;SDS011;14522;52.068;4.414;2022-12-10T14:07:11;36.78;;;19.63;;
26965;SDS011;14522;52.068;4.414;2022-12-10T14:09:44;39.80;;;19.73;;
26965;SDS011;14522;52.068;4.414;2022-12-10T14:12:14;40.35;;;19.60;;
26965;SDS011;14522;52.068;4.414;2022-12-10T14:14:42;40.70;;;19.70;;
26965;SDS011;14522;52.068;4.414;2022-12-10T14:17:17;44.65;;;19.92;;
26965;SDS011;14522;52.068;4.414;2022-12-10T14:19:45;30.08;;;15.23;;
26965;SDS011;14522;52.068;4.414;2022-12-10T14:22:13;39.03;;;19.33;;
26965;SDS011;14522;52.068;4.414;2022-12-10T14:24:41;40.40;;;20.13;;
26965;SDS011;14522;52.068;4.414;2022-12-10T14:27:13;39.88;;;18.90;;
26965;SDS011;14522;52.068;4.414;2022-12-10T14:29:47;40.92;;;18.98;;
26965;SDS011;14522;52.068;4.414;2022-12-10T14:32:14;38.28;;;18.45;;
26965;SDS011;14522;52.068;4.414;2022-12-10T14:34:41;41.00;;;19.50;;
26965;SDS011;14522;52.068;4.414;2022-12-10T14:37:09;35.22;;;17.73;;
26965;SDS011;14522;52.068;4.414;2022-12-10T14:39:37;36.70;;;18.02;;
26965;SDS011;14522;52.068;4.414;2022-12-10T14:42:05;38.00;;;18.85;;
26965;SDS011;14522;52.068;4.414;2022-12-10T14:44:32;39.55;;;19.00;;
26965;SDS011;14522;52.068;4.414;2022-12-10T14:47:17;37.70;;;17.50;;
26965;SDS011;14522;52.068;4.414;2022-12-10T14:49:45;36.03;;;17.30;;
26965;SDS011;14522;52.068;4.414;2022-12-10T14:52:16;43.63;;;21.23;;
26965;SDS011;14522;52.068;4.414;2022-12-10T14:54:44;44.80;;;19.80;;
26965;SDS011;14522;52.068;4.414;2022-12-10T14:57:18;42.47;;;20.00;;
26965;SDS011;14522;52.068;4.414;2022-12-10T14:59:49;39.00;;;21.15;;
26965;SDS011;14522;52.068;4.414;2022-12-10T15:02:22;44.03;;;21.63;;
26965;SDS011;14522;52.068;4.414;2022-12-10T15:04:50;43.15;;;21.73;;
26965;SDS011;14522;52.068;4.414;2022-12-10T15:07:18;45.40;;;22.02;;
26965;SDS011;14522;52.068;4.414;2022-12-10T15:09:45;49.15;;;22.50;;
26965;SDS011;14522;52.068;4.414;2022-12-10T15:12:27;39.30;;;19.05;;
26965;SDS011;14522;52.068;4.414;2022-12-10T15:14:55;45.65;;;20.67;;
26965;SDS011;14522;52.068;4.414;2022-12-10T15:17:35;38.47;;;18.63;;
26965;SDS011;14522;52.068;4.414;2022-12-10T15:20:09;46.28;;;22.05;;
26965;SDS011;14522;52.068;4.414;2022-12-10T15:22:36;34.78;;;16.17;;
26965;SDS011;14522;52.068;4.414;2022-12-10T15:25:25;49.63;;;23.77;;
26965;SDS011;14522;52.068;4.414;2022-12-10T15:28:00;48.33;;;23.83;;
26965;SDS011;14522;52.068;4.414;2022-12-10T15:30:33;51.28;;;23.52;;
26965;SDS011;14522;52.068;4.414;2022-12-10T15:33:00;47.63;;;23.52;;
26965;SDS011;14522;52.068;4.414;2022-12-10T15:35:27;52.78;;;24.67;;
26965;SDS011;14522;52.068;4.414;2022-12-10T15:37:53;47.50;;;22.52;;
26965;SDS011;14522;52.068;4.414;2022-12-10T15:40:29;53.50;;;24.30;;
26965;SDS011;14522;52.068;4.414;2022-12-10T15:42:57;51.30;;;23.98;;
26965;SDS011;14522;52.068;4.414;2022-12-10T15:45:40;47.10;;;23.83;;
26965;SDS011;14522;52.068;4.414;2022-12-10T15:48:11;52.75;;;24.23;;
26965;SDS011;14522;52.068;4.414;2022-12-10T15:50:39;47.88;;;23.15;;
26965;SDS011;14522;52.068;4.414;2022-12-10T15:53:09;51.85;;;23.73;;
26965;SDS011;14522;52.068;4.414;2022-12-10T15:55:36;50.47;;;24.83;;
26965;SDS011;14522;52.068;4.414;2022-12-10T15:58:02;53.25;;;24.13;;
26965;SDS011;14522;52.068;4.414;2022-12-10T16:00:30;45.58;;;20.02;;
26965;SDS011;14522;52.068;4.414;2022-12-10T16:02:57;47.88;;;23.15;;
26965;SDS011;14522;52.068;4.414;2022-12-10T16:05:28;50.88;;;23.08;;
26965;SDS011;14522;52.068;4.414;2022-12-10T16:07:56;52.28;;;23.02;;
26965;SDS011;14522;52.068;4.414;2022-12-10T16:10:24;48.05;;;23.02;;